Time;durP1;ratioP1;P1;durP2;ratioP2;P2;SDS_P1;SDS_P2;PMS_P1;PMS_P2;Temp;Humidity;BMP_temperature;BMP_pressure;BME280_temperature;BME280_humidity;BME280_pressure;Samples;Min_cycle;Max_cycle;Signal;HPM_P1;HPM_P2
2024/01/31 00:00:09;;;;;;;0.00;0.00;;;;;;;7.66;99.85;103576.34;5056247;27;96836;-26
2024/01/31 00:02:36;;;;;;;0.00;0.00;;;;;;;7.60;100.00;103576.34;5057765;27;96796;-26
2024/01/31 00:05:01;;;;;;;0.10;0.10;;;;;;;7.58;100.00;103579.06;5056231;27;101136;-28
2024/01/31 00:07:26;;;;;;;0.13;0.13;;;;;;;7.53;100.00;103583.59;5057845;27;97827;-26
2024/01/31 00:09:52;;;;;;;0.40;0.30;;;;;;;7.55;100.00;103591.66;5057761;27;96471;-26
2024/01/31 00:12:17;;;;;;;0.05;0.03;;;;;;;7.51;100.00;103596.19;5058121;27;96884;-28
2024/01/31 00:14:44;;;;;;;0.38;0.20;;;;;;;7.54;100.00;103598.88;5056905;27;99146;-27
2024/01/31 00:17:09;;;;;;;0.22;0.10;;;;;;;7.47;100.00;103591.69;5055860;27;101217;-27
2024/01/31 00:19:34;;;;;;;0.25;0.15;;;;;;;7.51;100.00;103603.34;5057513;27;96573;-27
2024/01/31 00:22:00;;;;;;;0.32;0.32;;;;;;;7.45;100.00;103607.00;5057568;27;96804;-27
2024/01/31 00:24:26;;;;;;;0.00;0.00;;;;;;;7.65;99.72;103604.19;5057080;27;99900;-28
2024/01/31 00:26:51;;;;;;;0.15;0.13;;;;;;;7.78;98.77;103600.53;5057299;27;97499;-26
2024/01/31 00:29:17;;;;;;;0.00;0.00;;;;;;;7.88;97.96;103601.38;5057731;27;96514;-26
2024/01/31 00:31:42;;;;;;;0.30;0.20;;;;;;;7.69;98.22;103597.00;5057966;27;96800;-26
2024/01/31 00:34:07;;;;;;;0.55;0.10;;;;;;;7.62;99.15;103612.31;5057254;27;98061;-28
2024/01/31 00:36:33;;;;;;;0.00;0.00;;;;;;;7.53;99.75;103605.19;5057077;27;97777;-27
2024/01/31 00:38:59;;;;;;;0.00;0.00;;;;;;;7.56;100.00;103625.84;5056960;27;96603;-28
2024/01/31 00:41:25;;;;;;;0.00;0.00;;;;;;;7.55;99.89;103624.03;5057115;27;97587;-27
2024/01/31 00:43:50;;;;;;;0.00;0.00;;;;;;;7.53;100.00;103626.75;5055573;27;101332;-27
2024/01/31 00:46:16;;;;;;;1.65;0.17;;;;;;;7.48;100.00;103617.75;5057116;27;97071;-27
2024/01/31 00:48:43;;;;;;;0.00;0.00;;;;;;;7.47;100.00;103607.88;5055140;27;96464;-26
2024/01/31 00:51:12;;;;;;;0.00;0.00;;;;;;;7.54;100.00;103609.66;5057175;27;96830;-27
2024/01/31 00:53:38;;;;;;;0.00;0.00;;;;;;;7.51;99.77;103600.66;5055513;27;100937;-27
2024/01/31 00:56:04;;;;;;;0.03;0.00;;;;;;;7.51;99.96;103604.28;5056724;27;99009;-26
2024/01/31 00:58:29;;;;;;;0.35;0.10;;;;;;;7.45;100.00;103602.47;5056396;27;96578;-27
2024/01/31 01:00:55;;;;;;;0.00;0.00;;;;;;;7.48;99.87;103603.38;5056879;27;96656;-26
2024/01/31 01:03:20;;;;;;;0.00;0.00;;;;;;;7.49;100.00;103600.69;5056266;27;97321;-27
2024/01/31 01:05:45;;;;;;;0.00;0.00;;;;;;;7.50;100.00;103597.06;5056687;27;97834;-27
2024/01/31 01:08:11;;;;;;;0.00;0.00;;;;;;;7.43;100.00;103593.50;5056821;27;96499;-27
2024/01/31 01:10:36;;;;;;;0.17;0.10;;;;;;;7.44;99.92;103595.31;5057098;27;96794;-27
2024/01/31 01:13:02;;;;;;;0.17;0.15;;;;;;;7.42;99.81;103591.72;5056450;27;98728;-27
2024/01/31 01:15:27;;;;;;;3.15;0.30;;;;;;;7.43;100.00;103595.31;5056570;27;97349;-27
2024/01/31 01:17:53;;;;;;;0.00;0.00;;;;;;;7.38;100.00;103587.22;5056773;27;96571;-28
2024/01/31 01:20:18;;;;;;;0.00;0.00;;;;;;;7.40;100.00;103593.53;5057171;27;96868;-28
2024/01/31 01:22:44;;;;;;;0.00;0.00;;;;;;;7.38;100.00;103595.31;5056329;27;97518;-27
2024/01/31 01:25:10;;;;;;;0.17;0.10;;;;;;;7.45;100.00;103607.00;5054910;27;101036;-26
2024/01/31 01:27:35;;;;;;;1.20;0.13;;;;;;;7.44;100.00;103614.19;5054651;27;96633;-28
2024/01/31 01:30:01;;;;;;;0.50;0.38;;;;;;;7.45;100.00;103604.28;5056987;27;96826;-27
2024/01/31 01:32:26;;;;;;;0.30;0.10;;;;;;;7.45;100.00;103601.59;5055994;27;98411;-28
2024/01/31 01:34:51;;;;;;;0.20;0.15;;;;;;;7.42;100.00;103593.53;5056238;27;97792;-28
2024/01/31 01:37:17;;;;;;;0.65;0.10;;;;;;;7.44;100.00;103603.41;5056613;27;96552;-27
2024/01/31 01:39:44;;;;;;;0.03;0.03;;;;;;;7.43;100.00;103611.47;5056509;27;96902;-27
2024/01/31 01:42:09;;;;;;;0.10;0.08;;;;;;;7.41;100.00;103602.50;5055783;27;99278;-27
2024/01/31 01:44:46;;;;;;;0.75;0.20;;;;;;;7.41;100.00;103594.41;5056593;27;97793;-26
2024/01/31 01:47:16;;;;;;;0.17;0.05;;;;;;;7.38;99.46;103586.34;5056352;27;96804;-26
2024/01/31 01:49:42;;;;;;;2.95;0.43;;;;;;;7.46;99.53;103595.31;5054800;27;96813;-26
2024/01/31 01:52:09;;;;;;;0.00;0.00;;;;;;;7.47;99.50;103591.69;5054135;27;99214;-27
2024/01/31 01:54:35;;;;;;;0.00;0.00;;;;;;;7.45;99.40;103586.31;5054177;27;100499;-28
2024/01/31 01:57:01;;;;;;;0.10;0.10;;;;;;;7.45;99.57;103588.13;5056325;27;96561;-27
2024/01/31 01:59:27;;;;;;;0.05;0.05;;;;;;;7.43;99.67;103592.59;5054457;27;96755;-26
2024/01/31 02:01:53;;;;;;;0.00;0.00;;;;;;;7.43;99.50;103581.81;5053891;27;98928;-26
2024/01/31 02:04:21;;;;;;;0.00;0.00;;;;;;;7.45;99.68;103590.81;5055640;27;99287;-27
2024/01/31 02:06:46;;;;;;;0.05;0.03;;;;;;;7.38;99.78;103586.34;5054714;27;96735;-27
2024/01/31 02:09:13;;;;;;;0.00;0.00;;;;;;;7.43;99.93;103589.91;5056286;27;96778;-27
2024/01/31 02:11:38;;;;;;;0.00;0.00;;;;;;;7.45;99.96;103593.50;5054264;27;101071;-27
2024/01/31 02:14:04;;;;;;;0.00;0.00;;;;;;;7.41;99.82;103580.94;5055988;27;97353;-26
2024/01/31 02:16:29;;;;;;;0.00;0.00;;;;;;;7.40;99.82;103573.75;5055365;27;96635;-27
2024/01/31 02:18:54;;;;;;;0.00;0.00;;;;;;;7.46;99.55;103573.75;5054387;27;96837;-27
2024/01/31 02:21:24;;;;;;;0.00;0.00;;;;;;;7.44;98.57;103572.84;5055306;27;99198;-26
2024/01/31 02:23:49;;;;;;;0.20;0.13;;;;;;;7.38;98.75;103567.47;5053869;27;100727;-26
2024/01/31 02:26:15;;;;;;;0.10;0.10;;;;;;;7.38;99.24;103559.38;5055568;27;96593;-26
2024/01/31 02:28:40;;;;;;;0.00;0.00;;;;;;;7.37;99.47;103560.28;5055531;27;96559;-27
2024/01/31 02:31:05;;;;;;;0.00;0.00;;;;;;;7.43;99.46;103569.22;5055342;27;97638;-26
2024/01/31 02:33:31;;;;;;;0.00;0.00;;;;;;;7.40;98.91;103573.75;5055860;27;97966;-27
2024/01/31 02:35:56;;;;;;;0.03;0.03;;;;;;;7.38;99.20;103559.38;5055673;27;96450;-27
2024/01/31 02:38:21;;;;;;;0.00;0.00;;;;;;;7.36;98.77;103566.56;5055497;27;96925;-26
2024/01/31 02:40:47;;;;;;;0.00;0.00;;;;;;;7.36;98.94;103559.38;5054831;27;97879;-27
2024/01/31 02:43:12;;;;;;;0.00;0.00;;;;;;;7.35;98.64;103554.00;5055122;27;97311;-26
2024/01/31 02:45:37;;;;;;;3.63;0.30;;;;;;;7.38;98.86;103548.59;5055397;27;96678;-27
2024/01/31 02:48:03;;;;;;;0.22;0.05;;;;;;;7.36;98.63;103548.59;5055752;27;96720;-28
2024/01/31 02:50:30;;;;;;;0.95;0.45;;;;;;;7.32;98.64;103548.66;5053503;27;102171;-26
2024/01/31 02:52:56;;;;;;;0.20;0.17;;;;;;;7.33;99.32;103543.22;5053440;27;100918;-27
2024/01/31 02:55:27;;;;;;;0.70;0.40;;;;;;;7.33;99.23;103539.63;5055330;27;96512;-27
2024/01/31 02:57:52;;;;;;;0.30;0.20;;;;;;;7.34;99.34;103533.31;5054698;27;96499;-27
2024/01/31 03:00:18;;;;;;;0.30;0.30;;;;;;;7.40;99.38;103536.00;5054906;27;97861;-26
2024/01/31 03:02:43;;;;;;;3.80;0.35;;;;;;;7.31;98.78;103536.94;5054887;27;97069;-27
2024/01/31 03:05:12;;;;;;;0.45;0.35;;;;;;;7.26;99.30;103524.38;5054454;27;96596;-26
2024/01/31 03:07:38;;;;;;;0.75;0.50;;;;;;;7.19;99.66;103515.44;5053652;27;96896;-26
2024/01/31 03:10:04;;;;;;;1.23;0.77;;;;;;;7.15;100.00;103506.47;5054249;27;100954;-26
2024/01/31 03:12:29;;;;;;;4.20;0.70;;;;;;;7.15;100.00;103508.25;5059731;27;100716;-26
2024/01/31 03:14:55;;;;;;;0.77;0.45;;;;;;;7.16;100.00;103510.06;5061621;27;96578;-28
2024/01/31 03:17:20;;;;;;;2.08;1.05;;;;;;;7.21;99.80;103508.25;5061846;27;96787;-27
2024/01/31 03:19:45;;;;;;;0.60;0.35;;;;;;;7.23;100.00;103518.09;5061238;27;99421;-27
2024/01/31 03:22:11;;;;;;;1.13;0.85;;;;;;;7.27;99.79;103516.31;5061818;27;97902;-26
2024/01/31 03:24:38;;;;;;;0.40;0.28;;;;;;;7.21;100.00;103514.50;5061759;27;96564;-26
2024/01/31 03:27:03;;;;;;;2.15;1.23;;;;;;;7.21;99.77;103516.31;5059948;27;96815;-26
2024/01/31 03:29:29;;;;;;;2.10;1.23;;;;;;;7.29;99.92;103524.38;5060700;27;99371;-27
2024/01/31 03:31:54;;;;;;;3.20;1.00;;;;;;;7.28;100.00;103510.00;5061438;27;97990;-26
2024/01/31 03:34:20;;;;;;;2.35;0.93;;;;;;;7.30;99.93;103512.69;5061644;27;96466;-27
2024/01/31 03:36:46;;;;;;;1.23;0.93;;;;;;;7.27;100.00;103523.47;5060263;27;96807;-26
2024/01/31 03:39:12;;;;;;;6.53;2.00;;;;;;;7.18;100.00;103513.66;5061265;27;97408;-26
2024/01/31 03:41:44;;;;;;;9.68;2.67;;;;;;;7.20;100.00;103530.72;5059527;27;100878;-27
2024/01/31 03:44:09;;;;;;;2.70;1.40;;;;;;;7.14;100.00;103528.91;5059957;27;96667;-27
2024/01/31 03:46:34;;;;;;;3.08;1.65;;;;;;;7.09;100.00;103522.66;5061613;27;96812;-27
2024/01/31 03:49:00;;;;;;;2.22;1.05;;;;;;;7.01;100.00;103508.31;5061237;27;97902;-27
2024/01/31 03:51:25;;;;;;;2.70;1.40;;;;;;;7.09;100.00;103521.78;5061169;27;97307;-27
2024/01/31 03:53:51;;;;;;;1.55;1.00;;;;;;;7.12;100.00;103517.25;5060796;27;96696;-26
2024/01/31 03:56:17;;;;;;;1.15;1.00;;;;;;;7.14;100.00;103511.84;5061049;27;96902;-27
2024/01/31 03:58:43;;;;;;;1.52;0.88;;;;;;;7.15;100.00;103502.84;5058924;27;101185;-26
2024/01/31 04:01:08;;;;;;;2.28;1.08;;;;;;;7.18;100.00;103516.34;5060822;27;97304;-26
2024/01/31 04:03:36;;;;;;;1.08;0.95;;;;;;;7.20;100.00;103506.47;5059819;27;96601;-27
2024/01/31 04:06:02;;;;;;;1.08;1.00;;;;;;;7.21;100.00;103508.25;5061118;27;96846;-27
2024/01/31 04:08:27;;;;;;;1.85;1.67;;;;;;;7.17;100.00;103512.72;5060891;27;97989;-27
2024/01/31 04:10:53;;;;;;;1.60;1.27;;;;;;;7.12;100.00;103501.06;5061123;27;97732;-27
2024/01/31 04:13:19;;;;;;;1.92;1.20;;;;;;;7.12;100.00;103509.16;5061051;27;96516;-27
2024/01/31 04:15:45;;;;;;;1.90;1.23;;;;;;;7.10;100.00;103508.25;5059701;27;96616;-26
2024/01/31 04:18:10;;;;;;;2.05;1.55;;;;;;;7.15;100.00;103510.94;5058904;27;100767;-27
2024/01/31 04:20:38;;;;;;;2.65;1.55;;;;;;;7.20;100.00;103523.53;5060532;27;99581;-26
2024/01/31 04:23:03;;;;;;;1.30;0.88;;;;;;;7.18;100.00;103516.34;5057441;27;96584;-26
2024/01/31 04:25:28;;;;;;;2.45;1.65;;;;;;;7.19;100.00;103512.72;5057343;27;96957;-27
2024/01/31 04:27:54;;;;;;;1.88;1.08;;;;;;;7.20;100.00;103515.44;5057064;27;98868;-26
2024/01/31 04:30:19;;;;;;;3.40;1.23;;;;;;;7.18;100.00;103513.66;5057065;27;98861;-27
2024/01/31 04:32:44;;;;;;;0.52;0.52;;;;;;;7.16;100.00;103510.94;5057280;27;96605;-26
2024/01/31 04:35:10;;;;;;;0.60;0.60;;;;;;;7.18;100.00;103517.22;5056503;27;96808;-28
2024/01/31 04:37:36;;;;;;;2.75;1.38;;;;;;;7.20;100.00;103518.13;5055676;27;101230;-27
2024/01/31 04:40:01;;;;;;;1.77;1.15;;;;;;;7.17;100.00;103506.44;5057083;27;97137;-27
2024/01/31 04:42:27;;;;;;;0.50;0.50;;;;;;;7.17;100.00;103511.84;5056684;27;96596;-26
2024/01/31 04:44:52;;;;;;;1.33;0.95;;;;;;;7.18;100.00;103505.56;5057478;27;96684;-26
2024/01/31 04:47:17;;;;;;;7.53;0.90;;;;;;;7.25;100.00;103501.94;5057101;27;97577;-27
2024/01/31 04:49:43;;;;;;;0.50;0.50;;;;;;;7.23;100.00;103512.72;5057339;27;97223;-26
2024/01/31 04:52:09;;;;;;;0.68;0.65;;;;;;;7.03;100.00;103493.03;5057275;27;96517;-26
2024/01/31 04:54:39;;;;;;;2.80;1.00;;;;;;;6.98;100.00;103501.16;5056668;27;96866;-26
2024/01/31 04:57:05;;;;;;;0.85;0.77;;;;;;;6.94;100.00;103493.97;5055444;27;100852;-26
2024/01/31 04:59:30;;;;;;;3.67;0.73;;;;;;;7.05;100.00;103502.00;5055321;27;101096;-28
2024/01/31 05:01:55;;;;;;;1.27;0.70;;;;;;;7.13;100.00;103504.69;5057183;27;96745;-27
2024/01/31 05:04:21;;;;;;;0.52;0.43;;;;;;;7.13;100.00;103496.59;5057116;27;97004;-29
2024/01/31 05:06:46;;;;;;;0.82;0.63;;;;;;;7.16;100.00;103500.16;5055971;27;99464;-26
2024/01/31 05:09:11;;;;;;;0.45;0.32;;;;;;;7.14;100.00;103496.56;5056179;27;99159;-26
2024/01/31 05:11:37;;;;;;;0.70;0.70;;;;;;;7.37;99.89;103495.59;5056946;27;96484;-28
2024/01/31 05:14:03;;;;;;;0.55;0.35;;;;;;;7.45;99.35;103504.50;5056892;27;96509;-27
2024/01/31 05:16:28;;;;;;;0.75;0.63;;;;;;;7.48;98.51;103501.78;5056313;27;99328;-26
2024/01/31 05:18:54;;;;;;;0.65;0.65;;;;;;;7.52;98.11;103514.34;5056343;27;99358;-26
2024/01/31 05:21:19;;;;;;;0.65;0.55;;;;;;;7.20;99.65;103501.06;5056624;27;97093;-26
2024/01/31 05:23:45;;;;;;;0.38;0.38;;;;;;;7.16;100.00;103499.28;5056969;27;96532;-27
2024/01/31 05:26:10;;;;;;;0.85;0.77;;;;;;;7.12;100.00;103503.78;5056523;27;97898;-27
2024/01/31 05:28:36;;;;;;;1.98;1.05;;;;;;;7.09;100.00;103509.19;5056455;27;97329;-26
2024/01/31 05:31:03;;;;;;;0.98;0.38;;;;;;;7.07;100.00;103504.69;5054697;27;96510;-28
2024/01/31 05:33:29;;;;;;;0.60;0.55;;;;;;;7.06;100.00;103517.28;5055052;27;96808;-26
2024/01/31 05:35:54;;;;;;;0.73;0.70;;;;;;;6.92;100.00;103505.66;5056644;27;97441;-27
2024/01/31 05:38:19;;;;;;;0.68;0.43;;;;;;;6.96;100.00;103505.66;5056042;27;97976;-26
2024/01/31 05:40:45;;;;;;;0.32;0.32;;;;;;;6.90;100.00;103492.19;5056694;27;96620;-27
2024/01/31 05:43:10;;;;;;;0.73;0.60;;;;;;;6.88;99.83;103493.09;5056207;27;96850;-27
2024/01/31 05:45:37;;;;;;;1.52;0.77;;;;;;;6.87;99.85;103477.84;5054683;27;101366;-27
2024/01/31 05:48:03;;;;;;;0.63;0.63;;;;;;;6.88;98.34;103474.22;5056174;27;99082;-27
2024/01/31 05:50:28;;;;;;;1.60;0.60;;;;;;;6.86;98.08;103444.59;5054962;27;96545;-26
2024/01/31 05:52:54;;;;;;;5.75;0.60;;;;;;;6.91;98.85;103456.28;5056311;27;96832;-27
2024/01/31 05:55:19;;;;;;;0.57;0.52;;;;;;;6.80;99.45;103440.13;5054824;27;99605;-26
2024/01/31 05:57:49;;;;;;;0.63;0.55;;;;;;;6.84;98.75;103446.44;5055986;27;97252;-27
2024/01/31 06:00:15;;;;;;;0.55;0.45;;;;;;;6.88;99.16;103439.22;5055743;27;96576;-27
2024/01/31 06:02:40;;;;;;;0.35;0.32;;;;;;;6.87;99.25;103432.94;5054586;27;96882;-27
2024/01/31 06:05:06;;;;;;;1.77;1.00;;;;;;;6.87;98.85;103432.94;5056106;27;97511;-27
2024/01/31 06:07:31;;;;;;;1.48;1.05;;;;;;;6.85;98.85;103436.53;5053939;27;100741;-26
2024/01/31 06:09:57;;;;;;;3.28;1.27;;;;;;;6.89;99.25;103425.75;5056021;27;96532;-27
2024/01/31 06:12:22;;;;;;;0.45;0.40;;;;;;;6.86;98.97;103409.56;5056364;27;96762;-27
2024/01/31 06:14:47;;;;;;;0.75;0.68;;;;;;;6.91;97.87;103434.72;5055391;27;98706;-27
2024/01/31 06:17:14;;;;;;;0.68;0.50;;;;;;;6.94;98.43;103445.47;5055707;27;97866;-27
2024/01/31 06:19:40;;;;;;;1.25;0.63;;;;;;;7.01;98.40;103465.22;5055170;27;96629;-26
2024/01/31 06:22:07;;;;;;;1.20;0.95;;;;;;;7.02;98.51;103465.19;5054116;27;96595;-27
2024/01/31 06:24:32;;;;;;;0.32;0.32;;;;;;;6.88;96.65;103455.38;5053934;27;100761;-26
2024/01/31 06:26:57;;;;;;;0.80;0.68;;;;;;;6.88;97.13;103472.44;5055369;27;98025;-27
2024/01/31 06:29:23;;;;;;;0.30;0.30;;;;;;;6.92;97.13;103473.34;5055858;27;96547;-27
2024/01/31 06:31:48;;;;;;;0.70;0.45;;;;;;;6.91;96.93;103488.59;5055835;27;96735;-26
2024/01/31 06:34:15;;;;;;;0.50;0.30;;;;;;;6.96;96.92;103486.78;5055454;27;97995;-27
2024/01/31 06:36:40;;;;;;;0.25;0.15;;;;;;;7.02;97.27;103510.09;5054029;27;100889;-26
2024/01/31 06:39:05;;;;;;;1.17;0.40;;;;;;;7.05;97.38;103515.47;5055401;27;96471;-26
2024/01/31 06:41:32;;;;;;;0.38;0.28;;;;;;;7.04;97.35;103511.00;5055848;27;96861;-27
2024/01/31 06:43:57;;;;;;;1.23;0.95;;;;;;;7.00;97.29;103522.69;5054458;27;99847;-26
2024/01/31 06:46:22;;;;;;;0.25;0.25;;;;;;;7.00;97.22;103522.69;5054563;27;97432;-26
2024/01/31 06:48:48;;;;;;;0.70;0.52;;;;;;;7.04;97.24;103540.66;5053965;27;96642;-27
2024/01/31 06:51:13;;;;;;;0.55;0.50;;;;;;;7.07;97.16;103547.81;5055709;27;96768;-27
2024/01/31 06:53:38;;;;;;;0.88;0.47;;;;;;;7.06;97.19;103559.53;5055018;27;97866;-27
2024/01/31 06:56:04;;;;;;;0.70;0.60;;;;;;;7.07;97.54;103554.09;5054813;27;97775;-26
2024/01/31 06:58:31;;;;;;;0.25;0.22;;;;;;;6.99;97.53;103553.25;5054850;27;96437;-27
2024/01/31 07:00:59;;;;;;;1.15;0.70;;;;;;;7.03;97.39;103546.91;5055327;27;96728;-27
2024/01/31 07:03:25;;;;;;;1.17;0.60;;;;;;;7.01;97.67;103546.94;5053417;27;99060;-27
2024/01/31 07:05:50;;;;;;;1.55;0.98;;;;;;;6.99;96.92;103555.94;5055196;27;97299;-27
2024/01/31 07:08:16;;;;;;;1.02;0.55;;;;;;;7.00;97.01;103558.59;5054438;27;96643;-27
2024/01/31 07:10:41;;;;;;;0.77;0.60;;;;;;;6.97;96.56;103549.66;5055144;27;96785;-27
2024/01/31 07:13:06;;;;;;;0.22;0.22;;;;;;;7.00;96.47;103552.31;5054684;27;99237;-27
2024/01/31 07:15:32;;;;;;;0.50;0.50;;;;;;;6.98;96.39;103540.66;5054830;27;97751;-26
2024/01/31 07:17:57;;;;;;;0.55;0.55;;;;;;;7.00;96.12;103536.16;5055049;27;96919;-26
2024/01/31 07:20:22;;;;;;;2.97;0.45;;;;;;;7.01;96.05;103543.38;5055086;27;96680;-27
2024/01/31 07:22:47;;;;;;;2.45;0.45;;;;;;;7.03;96.38;103530.75;5054359;27;99420;-27
2024/01/31 07:25:15;;;;;;;0.28;0.28;;;;;;;7.02;96.01;103537.06;5055054;27;97327;-27
2024/01/31 07:27:41;;;;;;;0.20;0.17;;;;;;;7.04;95.93;103556.81;5055019;27;96634;-26
2024/01/31 07:30:12;;;;;;;0.70;0.55;;;;;;;7.11;96.09;103557.69;5053489;27;96921;-27
2024/01/31 07:32:39;;;;;;;0.80;0.70;;;;;;;7.02;95.32;103546.03;5053826;27;99394;-27
2024/01/31 07:35:07;;;;;;;1.20;0.80;;;;;;;7.00;95.78;103552.31;5052880;27;100715;-28
2024/01/31 07:37:32;;;;;;;0.40;0.40;;;;;;;6.97;95.76;103547.84;5053277;27;96639;-26
2024/01/31 07:39:58;;;;;;;0.52;0.50;;;;;;;6.98;96.14;103548.75;5054839;27;96713;-27
2024/01/31 07:42:23;;;;;;;1.08;0.85;;;;;;;6.92;96.67;103541.59;5054184;27;99788;-26
2024/01/31 07:44:49;;;;;;;2.17;0.82;;;;;;;6.98;96.32;103541.56;5054195;27;99233;-26
2024/01/31 07:47:14;;;;;;;1.73;1.23;;;;;;;7.00;96.26;103542.44;5054877;27;96914;-26
2024/01/31 07:49:43;;;;;;;0.40;0.38;;;;;;;7.00;96.41;103539.75;5054921;27;96799;-27
2024/01/31 07:52:08;;;;;;;2.22;1.88;;;;;;;7.04;96.48;103543.34;5054394;27;97917;-26
2024/01/31 07:54:34;;;;;;;2.67;1.65;;;;;;;7.02;96.51;103548.72;5053101;27;97719;-27
2024/01/31 07:56:59;;;;;;;0.65;0.65;;;;;;;7.02;96.55;103537.06;5051818;27;97055;-32
2024/01/31 07:59:25;;;;;;;0.90;0.77;;;;;;;7.09;96.70;103536.13;5055240;27;96940;-30
2024/01/31 08:01:51;;;;;;;2.22;0.77;;;;;;;7.05;96.56;103528.94;5053465;27;101643;-31
2024/01/31 08:04:16;;;;;;;1.25;0.90;;;;;;;7.08;96.55;103519.97;5055231;27;97341;-28
2024/01/31 08:06:43;;;;;;;2.28;1.52;;;;;;;7.07;96.26;103515.47;5055494;27;96610;-27
2024/01/31 08:09:09;;;;;;;1.23;0.93;;;;;;;7.10;96.28;103508.25;5054448;27;97032;-26
2024/01/31 08:11:41;;;;;;;0.77;0.68;;;;;;;7.06;95.71;103500.22;5056187;27;99447;-26
2024/01/31 08:14:07;;;;;;;1.65;1.20;;;;;;;7.08;96.34;103510.09;5056427;27;99079;-27
2024/01/31 08:16:32;;;;;;;1.17;1.02;;;;;;;7.14;96.44;103510.06;5057961;27;96552;-26
2024/01/31 08:18:57;;;;;;;2.70;1.23;;;;;;;7.15;95.98;103501.09;5057786;27;96820;-28
2024/01/31 08:21:22;;;;;;;1.00;0.43;;;;;;;7.06;96.17;103490.34;5057142;27;97431;-26
2024/01/31 08:23:50;;;;;;;1.30;1.00;;;;;;;7.07;95.43;103492.13;5057282;27;97944;-26
2024/01/31 08:26:17;;;;;;;2.83;1.17;;;;;;;7.07;95.91;103497.50;5057529;27;96910;-26
2024/01/31 08:28:42;;;;;;;0.93;0.80;;;;;;;7.01;95.93;103481.38;5057965;27;96806;-28
2024/01/31 08:31:08;;;;;;;1.35;0.98;;;;;;;7.02;96.45;103480.47;5055813;27;100654;-32
2024/01/31 08:33:33;;;;;;;4.63;1.48;;;;;;;6.94;96.61;103461.66;5056991;27;98394;-26
2024/01/31 08:35:58;;;;;;;1.80;1.17;;;;;;;6.97;97.16;103463.44;5057921;27;96684;-26
2024/01/31 08:38:24;;;;;;;0.75;0.47;;;;;;;6.96;97.30;103454.44;5057916;27;96844;-28
2024/01/31 08:40:49;;;;;;;0.80;0.80;;;;;;;6.96;97.94;103457.16;5056914;27;99237;-27
2024/01/31 08:43:15;;;;;;;1.08;0.75;;;;;;;7.02;97.85;103458.91;5056782;27;99250;-26
2024/01/31 08:45:40;;;;;;;0.80;0.68;;;;;;;7.00;97.97;103440.03;5056651;27;96718;-26
2024/01/31 08:48:05;;;;;;;2.22;1.35;;;;;;;7.01;98.15;103439.16;5057190;27;96882;-27
2024/01/31 08:50:31;;;;;;;4.78;1.20;;;;;;;7.05;98.46;103439.13;5057035;27;98499;-26
2024/01/31 08:52:56;;;;;;;1.70;1.25;;;;;;;7.02;98.31;103437.34;5056994;27;97253;-27
2024/01/31 08:55:22;;;;;;;1.73;1.15;;;;;;;6.89;99.89;103439.22;5056989;27;96622;-26
2024/01/31 08:57:47;;;;;;;2.80;1.38;;;;;;;6.94;100.00;103434.69;5056594;27;97097;-27
2024/01/31 09:00:13;;;;;;;2.50;1.50;;;;;;;6.94;100.00;103431.13;5054953;27;101481;-27
2024/01/31 09:02:40;;;;;;;1.83;1.48;;;;;;;7.02;100.00;103440.94;5057442;27;96461;-27
2024/01/31 09:05:06;;;;;;;3.80;2.60;;;;;;;6.97;100.00;103417.63;5056846;27;96881;-26
2024/01/31 09:07:31;;;;;;;2.97;1.48;;;;;;;7.04;100.00;103421.19;5055607;27;96842;-27
2024/01/31 09:09:56;;;;;;;4.68;1.73;;;;;;;6.99;100.00;103423.91;5055638;27;97981;-27
2024/01/31 09:12:22;;;;;;;3.00;1.60;;;;;;;6.96;100.00;103430.19;5056709;27;97794;-27
2024/01/31 09:14:47;;;;;;;2.97;1.77;;;;;;;7.06;100.00;103440.94;5056679;27;96751;-26
2024/01/31 09:17:12;;;;;;;1.10;1.00;;;;;;;7.06;100.00;103443.63;5056937;27;97563;-26
2024/01/31 09:19:37;;;;;;;1.48;1.15;;;;;;;7.08;100.00;103440.03;5056419;27;99290;-27
2024/01/31 09:22:03;;;;;;;2.58;1.52;;;;;;;7.08;100.00;103431.94;5056226;27;98615;-27
2024/01/31 09:24:28;;;;;;;3.95;1.00;;;;;;;7.06;100.00;103417.56;5056688;27;96635;-27
2024/01/31 09:26:54;;;;;;;2.70;1.80;;;;;;;7.05;100.00;103417.56;5057264;27;96792;-26
2024/01/31 09:29:19;;;;;;;2.35;1.58;;;;;;;7.09;100.00;103427.44;5056334;27;97436;-27
2024/01/31 09:31:44;;;;;;;2.97;2.00;;;;;;;7.11;100.00;103421.13;5056313;27;97791;-27
2024/01/31 09:34:10;;;;;;;1.70;1.13;;;;;;;7.18;100.00;103428.28;5056137;27;96509;-27
2024/01/31 09:36:35;;;;;;;3.38;1.92;;;;;;;7.21;100.00;103416.59;5056329;27;96967;-26
2024/01/31 09:39:00;;;;;;;1.98;1.67;;;;;;;7.26;100.00;103419.25;5055870;27;99706;-26
2024/01/31 09:41:26;;;;;;;6.18;2.58;;;;;;;7.27;100.00;103429.13;5056238;27;97768;-27
2024/01/31 09:43:53;;;;;;;4.22;1.55;;;;;;;7.19;100.00;103416.59;5056354;27;96579;-27
2024/01/31 09:46:19;;;;;;;1.95;1.42;;;;;;;7.30;100.00;103443.50;5056236;27;96807;-27
2024/01/31 09:48:44;;;;;;;6.38;1.80;;;;;;;7.31;100.00;103434.47;5056212;27;98512;-26
2024/01/31 09:51:09;;;;;;;1.25;1.13;;;;;;;7.32;99.78;103430.00;5056535;27;97529;-27
2024/01/31 09:53:36;;;;;;;3.05;2.00;;;;;;;7.34;100.00;103447.03;5056154;27;96561;-27
2024/01/31 09:56:03;;;;;;;2.00;1.58;;;;;;;7.36;99.72;103448.81;5054493;27;96960;-27
2024/01/31 09:58:29;;;;;;;3.60;1.55;;;;;;;7.35;100.00;103455.13;5053669;27;100879;-27
2024/01/31 10:00:57;;;;;;;1.65;1.52;;;;;;;7.37;100.00;103455.13;5055495;27;98355;-27
2024/01/31 10:03:23;;;;;;;3.80;2.25;;;;;;;7.42;100.00;103458.69;5054508;27;96614;-26
2024/01/31 10:05:48;;;;;;;5.10;2.78;;;;;;;7.45;99.81;103458.66;5055903;27;96536;-27
2024/01/31 10:08:14;;;;;;;3.15;1.80;;;;;;;7.41;100.00;103459.59;5055672;27;99214;-27
2024/01/31 10:10:40;;;;;;;3.47;1.83;;;;;;;7.33;100.00;103454.25;5054177;27;99361;-28
2024/01/31 10:13:09;;;;;;;4.00;2.80;;;;;;;7.37;100.00;103456.03;5055943;27;96629;-28
2024/01/31 10:15:35;;;;;;;4.57;2.30;;;;;;;7.45;100.00;103458.66;5054648;27;96930;-26
2024/01/31 10:18:00;;;;;;;3.92;2.25;;;;;;;7.47;100.00;103453.28;5054071;27;101078;-26
2024/01/31 10:20:26;;;;;;;3.42;2.63;;;;;;;7.42;100.00;103458.69;5054507;27;97353;-26
2024/01/31 10:22:51;;;;;;;8.20;3.40;;;;;;;7.42;100.00;103450.59;5055200;27;96598;-27
2024/01/31 10:25:18;;;;;;;2.85;2.00;;;;;;;7.47;100.00;103443.38;5055953;27;96834;-27
2024/01/31 10:27:49;;;;;;;2.88;1.98;;;;;;;7.53;99.66;103447.81;5053876;27;100854;-27
2024/01/31 10:30:15;;;;;;;3.40;2.33;;;;;;;7.55;99.51;103454.09;5055172;27;99490;-26
2024/01/31 10:32:41;;;;;;;4.55;2.40;;;;;;;7.50;99.56;103446.03;5055432;27;96514;-27
2024/01/31 10:35:07;;;;;;;6.05;3.38;;;;;;;7.51;99.67;103431.69;5055486;27;96804;-28
2024/01/31 10:37:33;;;;;;;4.53;2.60;;;;;;;7.52;99.71;103438.84;5055039;27;99684;-26
2024/01/31 10:40:00;;;;;;;4.50;2.28;;;;;;;7.56;99.43;103429.84;5054268;27;100931;-27
2024/01/31 10:42:26;;;;;;;2.45;1.63;;;;;;;7.58;99.20;103427.09;5054223;27;96584;-27
2024/01/31 10:44:52;;;;;;;4.47;3.38;;;;;;;7.63;99.10;103423.50;5054031;27;97025;-27
2024/01/31 10:47:18;;;;;;;4.28;2.05;;;;;;;7.61;98.34;103419.00;5053169;27;101176;-28
2024/01/31 10:49:43;;;;;;;4.95;2.95;;;;;;;7.58;97.55;103414.53;5055188;27;97314;-27
2024/01/31 10:52:13;;;;;;;6.15;2.08;;;;;;;7.51;96.69;103391.22;5055126;27;96545;-26
2024/01/31 10:54:44;;;;;;;3.72;1.55;;;;;;;7.58;96.23;103395.66;5053756;27;96884;-27
2024/01/31 10:57:11;;;;;;;3.55;2.17;;;;;;;7.59;96.68;103400.13;5053258;27;100965;-27
2024/01/31 10:59:37;;;;;;;2.90;2.00;;;;;;;7.57;95.88;103390.28;5054768;27;97281;-27
2024/01/31 11:02:03;;;;;;;4.93;2.70;;;;;;;7.49;95.50;103376.84;5053482;27;96601;-27
2024/01/31 11:04:28;;;;;;;3.97;2.28;;;;;;;7.54;95.61;103366.91;5054215;27;96921;-26
2024/01/31 11:06:59;;;;;;;2.65;1.30;;;;;;;7.55;94.92;103363.28;5054812;27;99341;-26
2024/01/31 11:09:25;;;;;;;2.35;1.42;;;;;;;7.58;94.90;103348.88;5054679;27;99154;-27
2024/01/31 11:12:04;;;;;;;5.60;2.60;;;;;;;7.57;95.65;103345.31;5054280;27;96571;-26
2024/01/31 11:14:31;;;;;;;1.15;1.00;;;;;;;7.51;93.18;103325.56;5055161;27;96729;-27
2024/01/31 11:17:11;;;;;;;5.55;1.95;;;;;;;7.62;93.06;103332.66;5053454;27;101032;-27
2024/01/31 11:19:41;;;;;;;4.88;2.40;;;;;;;7.48;93.17;103313.03;5053366;27;99020;-28
2024/01/31 11:22:07;;;;;;;4.25;2.58;;;;;;;7.58;94.72;103311.13;5054931;27;96746;-26